Time;durP1;ratioP1;P1;durP2;ratioP2;P2;SDS_P1;SDS_P2;PMS_P1;PMS_P2;Temp;Humidity;BMP_temperature;BMP_pressure;BME280_temperature;BME280_humidity;BME280_pressure;Samples;Min_cycle;Max_cycle;Signal;HPM_P1;HPM_P2
2021/01/25 00:00:11;;;;;;;35.63;20.38;;;;;;;;;;5072974;28;20041;-73
2021/01/25 00:02:40;;;;;;;34.30;19.85;;;;;;;;;;5071659;28;20036;-74
2021/01/25 00:05:07;;;;;;;36.17;20.20;;;;;;;;;;5072665;28;20475;-74
2021/01/25 00:07:33;;;;;;;36.58;18.67;;;;;;;;;;5073036;28;20042;-74
2021/01/25 00:09:59;;;;;;;30.42;18.35;;;;;;;;;;5072941;28;20028;-73
2021/01/25 00:12:25;;;;;;;33.53;20.02;;;;;;;;;;5071989;28;20371;-74
2021/01/25 00:14:50;;;;;;;31.25;19.30;;;;;;;;;;5072761;28;20040;-73
2021/01/25 00:17:15;;;;;;;40.90;21.95;;;;;;;;;;5072711;28;20512;-74
2021/01/25 00:19:41;;;;;;;32.80;19.10;;;;;;;;;;5072889;28;20041;-74
2021/01/25 00:22:06;;;;;;;41.88;21.80;;;;;;;;;;5072247;28;20044;-73
2021/01/25 00:24:31;;;;;;;38.03;22.27;;;;;;;;;;5072617;28;20133;-74
2021/01/25 00:26:57;;;;;;;41.92;23.25;;;;;;;;;;5071453;28;20036;-73
2021/01/25 00:29:22;;;;;;;47.10;23.73;;;;;;;;;;5072715;28;20059;-73
2021/01/25 00:31:47;;;;;;;40.95;22.85;;;;;;;;;;5072738;28;20047;-73
2021/01/25 00:34:13;;;;;;;39.17;21.92;;;;;;;;;;5072781;28;20040;-74
2021/01/25 00:36:38;;;;;;;36.75;20.02;;;;;;;;;;5054794;28;20403;-74
2021/01/25 00:39:04;;;;;;;38.17;20.58;;;;;;;;;;5072560;28;20050;-74
2021/01/25 00:41:29;;;;;;;30.40;18.85;;;;;;;;;;5071522;28;20044;-73
2021/01/25 00:43:55;;;;;;;28.63;17.70;;;;;;;;;;5072058;28;20033;-74
2021/01/25 00:46:20;;;;;;;31.90;17.90;;;;;;;;;;5054694;28;20028;-74
2021/01/25 00:48:45;;;;;;;33.80;19.17;;;;;;;;;;5071666;28;20486;-73
2021/01/25 00:51:11;;;;;;;32.88;18.45;;;;;;;;;;5074033;28;20116;-74
2021/01/25 00:53:37;;;;;;;32.63;19.80;;;;;;;;;;5076005;28;20029;-74
2021/01/25 00:56:03;;;;;;;33.65;19.00;;;;;;;;;;5057475;28;20024;-74
2021/01/25 00:58:28;;;;;;;34.13;19.92;;;;;;;;;;5057785;28;20037;-74
2021/01/25 01:00:54;;;;;;;35.40;21.20;;;;;;;;;;5075324;28;20123;-74
2021/01/25 01:03:21;;;;;;;34.72;19.25;;;;;;;;;;5057721;28;20039;-73
2021/01/25 01:05:48;;;;;;;34.95;21.17;;;;;;;;;;5075656;28;20036;-73
2021/01/25 01:08:15;;;;;;;34.08;19.00;;;;;;;;;;5075648;28;20048;-74
2021/01/25 01:10:40;;;;;;;34.03;18.27;;;;;;;;;;5075852;28;20060;-73
2021/01/25 01:13:06;;;;;;;30.98;18.45;;;;;;;;;;5074687;28;20137;-73
2021/01/25 01:15:31;;;;;;;29.85;17.40;;;;;;;;;;5075801;28;20048;-74
2021/01/25 01:17:56;;;;;;;37.05;19.33;;;;;;;;;;5075572;28;20428;-74
2021/01/25 01:20:22;;;;;;;37.25;20.80;;;;;;;;;;5075633;28;20123;-74
2021/01/25 01:22:47;;;;;;;41.08;21.48;;;;;;;;;;5075728;28;20068;-74
2021/01/25 01:25:12;;;;;;;42.25;21.40;;;;;;;;;;5075545;28;20051;-74
2021/01/25 01:27:38;;;;;;;34.03;18.92;;;;;;;;;;5075304;28;20037;-73
2021/01/25 01:30:05;;;;;;;36.25;20.13;;;;;;;;;;5075403;28;20040;-74
2021/01/25 01:32:31;;;;;;;41.63;21.42;;;;;;;;;;5075506;28;20122;-73
2021/01/25 01:34:56;;;;;;;32.60;18.88;;;;;;;;;;5075058;28;20033;-73
2021/01/25 01:37:21;;;;;;;34.70;20.40;;;;;;;;;;5075184;28;20109;-73
2021/01/25 01:39:47;;;;;;;33.55;18.27;;;;;;;;;;5075333;28;20037;-74
2021/01/25 01:42:19;;;;;;;32.58;18.38;;;;;;;;;;5074733;28;20036;-73
2021/01/25 01:44:45;;;;;;;37.22;21.05;;;;;;;;;;5075034;28;20052;-74
2021/01/25 01:47:17;;;;;;;37.65;20.23;;;;;;;;;;5056180;28;20116;-73
2021/01/25 01:49:43;;;;;;;38.92;19.35;;;;;;;;;;5075063;28;20413;-74
2021/01/25 01:52:09;;;;;;;37.15;21.25;;;;;;;;;;5074089;28;20050;-74
2021/01/25 01:54:38;;;;;;;36.42;18.92;;;;;;;;;;5074623;28;20040;-74
2021/01/25 01:57:04;;;;;;;33.25;19.13;;;;;;;;;;5074982;28;20032;-74
2021/01/25 01:59:30;;;;;;;33.47;17.52;;;;;;;;;;5074650;28;20043;-74
2021/01/25 02:01:55;;;;;;;28.83;16.25;;;;;;;;;;5055933;28;20040;-73
2021/01/25 02:04:21;;;;;;;26.63;16.48;;;;;;;;;;5073818;28;20044;-74
2021/01/25 02:06:48;;;;;;;36.63;20.40;;;;;;;;;;5056654;28;20039;-74
2021/01/25 02:09:14;;;;;;;32.13;18.80;;;;;;;;;;5074623;28;20117;-74
2021/01/25 02:11:40;;;;;;;32.25;17.80;;;;;;;;;;5074236;28;20036;-74
2021/01/25 02:14:06;;;;;;;32.72;18.17;;;;;;;;;;5073410;28;20098;-74
2021/01/25 02:16:32;;;;;;;31.63;18.33;;;;;;;;;;5074185;28;20040;-74
2021/01/25 02:18:58;;;;;;;34.25;19.25;;;;;;;;;;5056451;28;20036;-74
2021/01/25 02:21:28;;;;;;;31.10;18.10;;;;;;;;;;5074491;28;20040;-74
2021/01/25 02:24:06;;;;;;;33.22;18.33;;;;;;;;;;5055526;28;20075;-74
2021/01/25 02:26:58;;;;;;;32.38;17.48;;;;;;;;;;5074441;28;20450;-74
2021/01/25 02:29:24;;;;;;;31.48;16.02;;;;;;;;;;5074269;28;20114;-74
2021/01/25 02:31:50;;;;;;;31.48;16.42;;;;;;;;;;5056356;28;20106;-74
2021/01/25 02:34:16;;;;;;;29.35;16.52;;;;;;;;;;5073423;28;20036;-74
2021/01/25 02:36:44;;;;;;;28.23;15.40;;;;;;;;;;5073984;28;20040;-74
2021/01/25 02:39:09;;;;;;;32.65;16.95;;;;;;;;;;5074014;28;20037;-74
2021/01/25 02:41:35;;;;;;;30.42;17.00;;;;;;;;;;5072927;28;20110;-74
2021/01/25 02:44:03;;;;;;;30.75;16.55;;;;;;;;;;5073645;28;20415;-74
2021/01/25 02:46:28;;;;;;;29.73;17.23;;;;;;;;;;5056004;28;20048;-74
2021/01/25 02:48:55;;;;;;;30.85;16.30;;;;;;;;;;5073876;28;20045;-74
2021/01/25 02:51:22;;;;;;;28.40;16.23;;;;;;;;;;5073923;28;20099;-74
2021/01/25 02:53:47;;;;;;;34.65;17.52;;;;;;;;;;5073762;28;20394;-74
2021/01/25 02:56:13;;;;;;;30.13;16.42;;;;;;;;;;5073889;28;20032;-74
2021/01/25 02:58:39;;;;;;;30.15;16.02;;;;;;;;;;5073470;28;20040;-74
2021/01/25 03:01:04;;;;;;;29.98;15.80;;;;;;;;;;5073613;28;20104;-75
2021/01/25 03:03:30;;;;;;;33.92;17.73;;;;;;;;;;5073580;28;20073;-74
2021/01/25 03:05:57;;;;;;;29.75;16.60;;;;;;;;;;5073712;28;20506;-74
2021/01/25 03:08:26;;;;;;;25.15;15.02;;;;;;;;;;5073675;28;20024;-74
2021/01/25 03:10:52;;;;;;;30.92;16.95;;;;;;;;;;5055675;28;20050;-74
2021/01/25 03:13:17;;;;;;;30.13;15.88;;;;;;;;;;5071941;28;20040;-74
2021/01/25 03:15:45;;;;;;;32.03;16.15;;;;;;;;;;5073445;28;20072;-74
2021/01/25 03:18:10;;;;;;;31.02;15.85;;;;;;;;;;5072688;28;20043;-74
2021/01/25 03:20:35;;;;;;;27.38;16.00;;;;;;;;;;5073437;28;20028;-74
2021/01/25 03:23:01;;;;;;;31.48;15.85;;;;;;;;;;5074511;28;20505;-74
2021/01/25 03:25:26;;;;;;;33.50;16.15;;;;;;;;;;5074114;28;20547;-73
2021/01/25 03:27:51;;;;;;;32.92;15.70;;;;;;;;;;5074765;28;20036;-74
2021/01/25 03:30:17;;;;;;;29.92;16.17;;;;;;;;;;5074907;28;20093;-73
2021/01/25 03:32:44;;;;;;;28.13;15.52;;;;;;;;;;5073102;28;20033;-73
2021/01/25 03:35:10;;;;;;;31.65;15.63;;;;;;;;;;5056164;28;20032;-73
2021/01/25 03:37:36;;;;;;;28.88;15.48;;;;;;;;;;5074504;28;20032;-73
2021/01/25 03:40:05;;;;;;;31.27;16.27;;;;;;;;;;5074918;28;20039;-74
2021/01/25 03:42:30;;;;;;;25.88;15.13;;;;;;;;;;5056351;28;20470;-74
2021/01/25 03:44:56;;;;;;;32.30;15.45;;;;;;;;;;5074407;28;20121;-73
2021/01/25 03:47:21;;;;;;;30.98;15.18;;;;;;;;;;5074864;28;20032;-73
2021/01/25 03:49:50;;;;;;;27.58;14.52;;;;;;;;;;5056735;28;20125;-75
2021/01/25 03:52:15;;;;;;;23.70;13.18;;;;;;;;;;5073389;28;20029;-75
2021/01/25 03:54:40;;;;;;;28.40;15.27;;;;;;;;;;5058542;28;20413;-76
2021/01/25 03:57:06;;;;;;;26.90;15.32;;;;;;;;;;5076182;28;20040;-76
2021/01/25 03:59:31;;;;;;;25.58;14.75;;;;;;;;;;5075638;28;20040;-73
2021/01/25 04:02:19;;;;;;;30.95;16.42;;;;;;;;;;5063756;28;20041;-76
2021/01/25 04:04:45;;;;;;;34.03;15.45;;;;;;;;;;5083078;28;20036;-76
2021/01/25 04:07:11;;;;;;;26.17;14.75;;;;;;;;;;5078374;28;20051;-76
2021/01/25 04:09:38;;;;;;;26.90;14.63;;;;;;;;;;5077613;28;20025;-76
2021/01/25 04:12:04;;;;;;;29.42;15.80;;;;;;;;;;5077632;28;20044;-76
2021/01/25 04:14:29;;;;;;;23.48;13.38;;;;;;;;;;5077637;28;20040;-76
2021/01/25 04:16:55;;;;;;;26.38;14.85;;;;;;;;;;5077440;28;20402;-76
2021/01/25 04:19:21;;;;;;;22.73;13.73;;;;;;;;;;5077954;28;20091;-76
2021/01/25 04:21:46;;;;;;;25.75;14.63;;;;;;;;;;5078674;28;20036;-76
2021/01/25 04:24:12;;;;;;;26.85;15.90;;;;;;;;;;5078451;28;20112;-76
2021/01/25 04:26:41;;;;;;;31.05;16.50;;;;;;;;;;5081047;28;20040;-76
2021/01/25 04:29:09;;;;;;;29.98;15.15;;;;;;;;;;5082359;28;20039;-75
2021/01/25 04:31:34;;;;;;;31.10;17.02;;;;;;;;;;5082734;28;20036;-76
2021/01/25 04:33:59;;;;;;;32.83;18.58;;;;;;;;;;5082489;28;20375;-76
2021/01/25 04:36:26;;;;;;;32.88;16.50;;;;;;;;;;5082101;28;20044;-75
2021/01/25 04:38:52;;;;;;;34.97;16.88;;;;;;;;;;5082967;28;20041;-76
2021/01/25 04:41:17;;;;;;;30.73;15.85;;;;;;;;;;5082056;28;20500;-75
2021/01/25 04:43:43;;;;;;;30.23;15.80;;;;;;;;;;5083113;28;20048;-76
2021/01/25 04:46:08;;;;;;;28.02;15.10;;;;;;;;;;5082773;28;20068;-76
2021/01/25 04:48:36;;;;;;;31.50;16.60;;;;;;;;;;5083069;28;20033;-76
2021/01/25 04:51:01;;;;;;;31.58;15.85;;;;;;;;;;5081676;28;20119;-75
2021/01/25 04:53:28;;;;;;;25.70;14.82;;;;;;;;;;5081986;28;20082;-75
2021/01/25 04:55:54;;;;;;;24.77;12.98;;;;;;;;;;5081537;28;20035;-75
2021/01/25 04:58:20;;;;;;;26.30;15.20;;;;;;;;;;5082031;28;20115;-75
2021/01/25 05:00:45;;;;;;;26.60;14.32;;;;;;;;;;5065076;28;20402;-76
2021/01/25 05:03:11;;;;;;;29.15;14.82;;;;;;;;;;5082558;28;20045;-76
2021/01/25 05:05:36;;;;;;;27.27;14.00;;;;;;;;;;5081673;28;20066;-76
2021/01/25 05:08:02;;;;;;;28.67;15.15;;;;;;;;;;5082861;28;20036;-76
2021/01/25 05:10:30;;;;;;;27.75;14.63;;;;;;;;;;5082786;28;20028;-76
2021/01/25 05:12:55;;;;;;;31.42;15.57;;;;;;;;;;5083172;28;20093;-76
2021/01/25 05:15:32;;;;;;;34.10;15.52;;;;;;;;;;5081578;28;20060;-76
2021/01/25 05:18:00;;;;;;;;;;;;;;;;;;5081623;28;20043;-76
2021/01/25 05:20:27;;;;;;;27.55;15.68;;;;;;;;;;5080207;28;19946;-76
2021/01/25 05:22:53;;;;;;;33.13;17.00;;;;;;;;;;5079564;28;20067;-76
2021/01/25 05:25:29;;;;;;;34.97;16.02;;;;;;;;;;5080533;28;20064;-76
2021/01/25 05:27:58;;;;;;;29.63;17.27;;;;;;;;;;5080480;28;20098;-76
2021/01/25 05:30:25;;;;;;;28.17;15.50;;;;;;;;;;5080393;28;20036;-76
2021/01/25 05:32:52;;;;;;;34.30;15.30;;;;;;;;;;5081512;28;20124;-76
2021/01/25 05:35:23;;;;;;;33.15;15.73;;;;;;;;;;5080832;28;20031;-75
2021/01/25 05:37:57;;;;;;;33.40;17.42;;;;;;;;;;5061762;28;20040;-76
2021/01/25 05:40:24;;;;;;;28.90;15.40;;;;;;;;;;5062551;28;20119;-76
2021/01/25 05:42:51;;;;;;;25.20;13.48;;;;;;;;;;5080647;28;20048;-75
2021/01/25 05:45:18;;;;;;;27.05;14.23;;;;;;;;;;5080625;28;20036;-76
2021/01/25 05:47:53;;;;;;;29.65;14.88;;;;;;;;;;5078657;28;20462;-76
2021/01/25 05:50:28;;;;;;;33.10;16.98;;;;;;;;;;5080683;28;20044;-76
2021/01/25 05:52:55;;;;;;;30.38;14.57;;;;;;;;;;5080178;28;20044;-76
2021/01/25 05:55:21;;;;;;;25.90;14.32;;;;;;;;;;5080919;28;20123;-76
2021/01/25 05:57:47;;;;;;;34.30;17.10;;;;;;;;;;5079835;28;20062;-76
2021/01/25 06:00:13;;;;;;;33.15;16.63;;;;;;;;;;5080969;28;20029;-75
2021/01/25 06:02:42;;;;;;;29.48;16.08;;;;;;;;;;5080593;28;20032;-75
2021/01/25 06:05:11;;;;;;;37.88;17.92;;;;;;;;;;5081691;28;20041;-76
2021/01/25 06:07:40;;;;;;;32.08;16.83;;;;;;;;;;5081732;28;20041;-76
2021/01/25 06:10:12;;;;;;;29.75;16.60;;;;;;;;;;5047364;28;20039;-76
2021/01/25 06:12:44;;;;;;;33.83;17.73;;;;;;;;;;5081864;28;20178;-76
2021/01/25 06:15:22;;;;;;;36.20;18.10;;;;;;;;;;5080962;28;20049;-75
2021/01/25 06:17:47;;;;;;;34.90;17.52;;;;;;;;;;5081415;28;20098;-76
2021/01/25 06:20:16;;;;;;;31.33;17.25;;;;;;;;;;5080675;28;20044;-76
2021/01/25 06:22:45;;;;;;;26.25;15.60;;;;;;;;;;5082209;28;20036;-76
2021/01/25 06:25:12;;;;;;;32.53;18.85;;;;;;;;;;5082256;28;20033;-76
2021/01/25 06:27:40;;;;;;;36.25;17.58;;;;;;;;;;5065424;28;20044;-75
2021/01/25 06:30:05;;;;;;;27.90;15.52;;;;;;;;;;5082378;28;20414;-76
2021/01/25 06:32:33;;;;;;;26.77;15.02;;;;;;;;;;5082210;28;20239;-76
2021/01/25 06:35:03;;;;;;;28.60;15.45;;;;;;;;;;5082868;28;20036;-76
2021/01/25 06:37:28;;;;;;;31.70;16.15;;;;;;;;;;5065227;28;20694;-76
2021/01/25 06:39:57;;;;;;;33.53;16.45;;;;;;;;;;5082820;28;20029;-76
2021/01/25 06:42:31;;;;;;;32.65;15.75;;;;;;;;;;5081235;28;20482;-76
2021/01/25 06:44:59;;;;;;;31.55;16.38;;;;;;;;;;5082035;28;20040;-76
2021/01/25 06:47:25;;;;;;;34.97;17.52;;;;;;;;;;5079914;28;20044;-77
2021/01/25 06:49:51;;;;;;;32.58;18.35;;;;;;;;;;5080308;28;20043;-79
2021/01/25 06:52:17;;;;;;;28.58;16.48;;;;;;;;;;5079734;28;20032;-78
2021/01/25 06:54:44;;;;;;;32.95;16.70;;;;;;;;;;5081743;28;20033;-78
2021/01/25 06:57:46;;;;;;;36.25;19.60;;;;;;;;;;5080795;28;20088;-79
2021/01/25 07:00:14;;;;;;;36.25;17.70;;;;;;;;;;5051145;28;20046;-78
2021/01/25 07:02:59;;;;;;;34.30;17.05;;;;;;;;;;5081709;28;20112;-77
2021/01/25 07:05:42;;;;;;;35.70;17.88;;;;;;;;;;5078929;28;20036;-75
2021/01/25 07:08:19;;;;;;;35.30;19.75;;;;;;;;;;5062021;28;20041;-74
2021/01/25 07:10:59;;;;;;;37.25;20.13;;;;;;;;;;5061980;28;20045;-75
2021/01/25 07:13:34;;;;;;;39.42;21.13;;;;;;;;;;5060846;28;20047;-75
2021/01/25 07:15:59;;;;;;;49.78;23.02;;;;;;;;;;5079591;28;20101;-75
2021/01/25 07:18:27;;;;;;;52.33;23.63;;;;;;;;;;5080639;28;20032;-75
2021/01/25 07:20:57;;;;;;;44.10;21.27;;;;;;;;;;5082138;28;20066;-74
2021/01/25 07:23:24;;;;;;;46.22;21.50;;;;;;;;;;5086688;28;20039;-77
2021/01/25 07:25:58;;;;;;;38.97;19.83;;;;;;;;;;5085200;28;20078;-77
2021/01/25 07:28:26;;;;;;;40.78;19.63;;;;;;;;;;5082251;28;20120;-76
2021/01/25 07:30:52;;;;;;;40.33;20.95;;;;;;;;;;5075952;28;20041;-75
2021/01/25 07:33:18;;;;;;;40.35;21.00;;;;;;;;;;5075771;28;20093;-75
2021/01/25 07:35:44;;;;;;;40.67;19.55;;;;;;;;;;5076167;28;20036;-75
2021/01/25 07:38:09;;;;;;;40.42;19.83;;;;;;;;;;5076334;28;20036;-75
2021/01/25 07:40:35;;;;;;;38.30;19.88;;;;;;;;;;5076498;28;20032;-74
2021/01/25 07:43:03;;;;;;;37.55;20.45;;;;;;;;;;5057920;28;20059;-76
2021/01/25 07:45:29;;;;;;;41.00;21.10;;;;;;;;;;5076091;28;20498;-76
2021/01/25 07:47:55;;;;;;;42.67;21.67;;;;;;;;;;5074692;28;20032;-75
2021/01/25 07:50:21;;;;;;;38.33;19.73;;;;;;;;;;5073772;28;20079;-76
2021/01/25 07:53:05;;;;;;;39.97;21.23;;;;;;;;;;5056189;28;20398;-76
2021/01/25 07:55:30;;;;;;;36.17;19.58;;;;;;;;;;5062168;28;20040;-79
2021/01/25 07:58:06;;;;;;;36.67;19.15;;;;;;;;;;5078110;28;20116;-78
2021/01/25 08:00:31;;;;;;;43.65;21.15;;;;;;;;;;5078510;28;20444;-77
2021/01/25 08:03:03;;;;;;;46.13;20.67;;;;;;;;;;5060453;28;20032;-77
2021/01/25 08:05:29;;;;;;;43.08;18.95;;;;;;;;;;5060548;28;20048;-76
2021/01/25 08:07:55;;;;;;;31.58;18.35;;;;;;;;;;5050952;28;20400;-77
2021/01/25 08:10:21;;;;;;;46.00;20.27;;;;;;;;;;5079866;28;20044;-77
2021/01/25 08:12:48;;;;;;;43.25;21.60;;;;;;;;;;5085087;28;20486;-78
2021/01/25 08:15:22;;;;;;;45.40;22.17;;;;;;;;;;5080279;28;20085;-79
2021/01/25 08:17:54;;;;;;;54.20;21.15;;;;;;;;;;5080697;28;20051;-79
2021/01/25 08:20:22;;;;;;;37.63;20.48;;;;;;;;;;5061928;28;20036;-77
2021/01/25 08:22:58;;;;;;;42.78;20.80;;;;;;;;;;5076750;28;20036;-76
2021/01/25 08:25:26;;;;;;;38.33;19.52;;;;;;;;;;5077208;28;20047;-77
2021/01/25 08:27:57;;;;;;;47.72;22.25;;;;;;;;;;5078858;28;20032;-77
2021/01/25 08:30:22;;;;;;;38.13;20.17;;;;;;;;;;5059074;28;20529;-77
2021/01/25 08:32:55;;;;;;;37.45;20.70;;;;;;;;;;5081334;28;20522;-77
2021/01/25 08:35:29;;;;;;;42.85;20.35;;;;;;;;;;5080756;28;20028;-77
2021/01/25 08:38:23;;;;;;;45.10;21.20;;;;;;;;;;5065436;28;20028;-78
2021/01/25 08:40:48;;;;;;;45.40;20.15;;;;;;;;;;5083477;28;20442;-77
2021/01/25 08:43:32;;;;;;;47.47;20.73;;;;;;;;;;5082357;28;20049;-76
2021/01/25 08:46:14;;;;;;;43.65;23.13;;;;;;;;;;5051054;28;20513;-76
2021/01/25 08:48:42;;;;;;;51.22;21.70;;;;;;;;;;5061288;28;20126;-75
2021/01/25 08:51:16;;;;;;;48.65;24.13;;;;;;;;;;5077037;28;20041;-77
2021/01/25 08:53:44;;;;;;;39.08;19.73;;;;;;;;;;5076838;28;20068;-77
2021/01/25 08:56:19;;;;;;;38.53;20.67;;;;;;;;;;5063175;28;20051;-76
2021/01/25 08:58:44;;;;;;;52.70;25.30;;;;;;;;;;5076570;28;20116;-77
2021/01/25 09:01:22;;;;;;;46.88;22.30;;;;;;;;;;5059322;28;20079;-77
2021/01/25 09:03:47;;;;;;;46.42;21.67;;;;;;;;;;5076830;28;20055;-76
2021/01/25 09:06:12;;;;;;;44.97;22.75;;;;;;;;;;5076322;28;20044;-76
2021/01/25 09:08:38;;;;;;;51.28;22.73;;;;;;;;;;5075830;28;20033;-76
2021/01/25 09:11:04;;;;;;;39.33;20.98;;;;;;;;;;5057606;28;20036;-76
2021/01/25 09:13:30;;;;;;;47.92;22.30;;;;;;;;;;5074656;28;20035;-77
2021/01/25 09:15:56;;;;;;;39.60;21.33;;;;;;;;;;5076162;28;20119;-77
2021/01/25 09:18:21;;;;;;;37.95;18.75;;;;;;;;;;5058167;28;20033;-76
2021/01/25 09:20:46;;;;;;;38.60;19.05;;;;;;;;;;5057922;28;20075;-77
2021/01/25 09:23:12;;;;;;;35.88;20.23;;;;;;;;;;5058089;28;20124;-76
2021/01/25 09:25:37;;;;;;;36.35;20.63;;;;;;;;;;5057674;28;20131;-77
2021/01/25 09:28:03;;;;;;;37.08;18.17;;;;;;;;;;5074971;28;20037;-77
2021/01/25 09:30:30;;;;;;;31.02;17.17;;;;;;;;;;5075989;28;20447;-77
2021/01/25 09:32:55;;;;;;;33.72;18.88;;;;;;;;;;5075813;28;20464;-77
2021/01/25 09:35:22;;;;;;;30.60;17.77;;;;;;;;;;5075919;28;20032;-77
2021/01/25 09:37:47;;;;;;;30.30;18.83;;;;;;;;;;5075789;28;20047;-77
2021/01/25 09:40:14;;;;;;;36.50;19.30;;;;;;;;;;5075671;28;20040;-77
2021/01/25 09:42:39;;;;;;;33.55;18.23;;;;;;;;;;5074040;28;20067;-77
2021/01/25 09:45:05;;;;;;;32.72;18.35;;;;;;;;;;5075306;28;20044;-77
2021/01/25 09:47:31;;;;;;;33.50;18.20;;;;;;;;;;5075359;28;20052;-77
2021/01/25 09:49:57;;;;;;;30.65;18.30;;;;;;;;;;5075231;28;20493;-77
2021/01/25 09:52:23;;;;;;;30.67;16.58;;;;;;;;;;5074785;28;20063;-77
2021/01/25 09:54:48;;;;;;;31.75;18.23;;;;;;;;;;5074631;28;20021;-76
2021/01/25 09:57:14;;;;;;;32.50;17.60;;;;;;;;;;5074214;28;20036;-76
2021/01/25 09:59:39;;;;;;;29.77;16.65;;;;;;;;;;5075142;28;20036;-76
2021/01/25 10:02:05;;;;;;;32.80;17.88;;;;;;;;;;5074617;28;20116;-76
2021/01/25 10:04:31;;;;;;;31.23;18.23;;;;;;;;;;5074915;28;20032;-77
2021/01/25 10:06:56;;;;;;;28.27;17.25;;;;;;;;;;5075180;28;20096;-77
2021/01/25 10:09:21;;;;;;;31.95;16.60;;;;;;;;;;5074961;28;20067;-77
2021/01/25 10:11:47;;;;;;;30.48;17.63;;;;;;;;;;5074829;28;20075;-76
2021/01/25 10:14:12;;;;;;;36.08;18.35;;;;;;;;;;5074652;28;20039;-77
2021/01/25 10:16:38;;;;;;;29.98;17.83;;;;;;;;;;5073489;28;20466;-76
2021/01/25 10:19:03;;;;;;;33.75;18.77;;;;;;;;;;5056846;28;20363;-76
2021/01/25 10:21:28;;;;;;;29.85;17.05;;;;;;;;;;5074525;28;20145;-76
2021/01/25 10:23:54;;;;;;;31.27;17.35;;;;;;;;;;5055716;28;20029;-76
2021/01/25 10:26:20;;;;;;;29.17;18.08;;;;;;;;;;5074624;28;20531;-76
2021/01/25 10:28:47;;;;;;;33.75;17.92;;;;;;;;;;5074729;28;20036;-76
2021/01/25 10:31:12;;;;;;;35.25;17.85;;;;;;;;;;5074123;28;20127;-76
2021/01/25 10:33:38;;;;;;;32.67;18.60;;;;;;;;;;5056255;28;20068;-76
2021/01/25 10:36:04;;;;;;;34.83;19.00;;;;;;;;;;5073505;28;20042;-77
2021/01/25 10:38:29;;;;;;;31.88;18.38;;;;;;;;;;5056395;28;20547;-77
2021/01/25 10:40:54;;;;;;;30.20;18.50;;;;;;;;;;5074246;28;20028;-77
2021/01/25 10:43:20;;;;;;;31.35;18.50;;;;;;;;;;5073208;28;20501;-77
2021/01/25 10:45:46;;;;;;;38.67;20.42;;;;;;;;;;5074193;28;20043;-77
2021/01/25 10:48:11;;;;;;;32.42;19.35;;;;;;;;;;5074135;28;20093;-77
2021/01/25 10:50:37;;;;;;;32.22;18.45;;;;;;;;;;5074170;28;20040;-77
2021/01/25 10:53:02;;;;;;;31.25;18.80;;;;;;;;;;5074190;28;20401;-77
2021/01/25 10:55:27;;;;;;;35.17;19.15;;;;;;;;;;5074341;28;20359;-77
2021/01/25 10:57:53;;;;;;;31.90;18.80;;;;;;;;;;5073952;28;20044;-77
2021/01/25 11:00:21;;;;;;;30.08;18.15;;;;;;;;;;5056155;28;20444;-77
2021/01/25 11:02:46;;;;;;;36.28;19.80;;;;;;;;;;5073675;28;20047;-77
2021/01/25 11:05:18;;;;;;;31.42;17.52;;;;;;;;;;5074002;28;20057;-77
2021/01/25 11:07:44;;;;;;;30.17;17.65;;;;;;;;;;5073360;28;20045;-77
2021/01/25 11:10:13;;;;;;;30.77;18.02;;;;;;;;;;5073744;28;20390;-77
2021/01/25 11:12:39;;;;;;;30.45;18.83;;;;;;;;;;5055852;28;20094;-77
2021/01/25 11:15:06;;;;;;;32.47;18.45;;;;;;;;;;5073895;28;20075;-77
2021/01/25 11:17:31;;;;;;;32.55;18.35;;;;;;;;;;5073585;28;20463;-77
2021/01/25 11:19:57;;;;;;;32.38;19.02;;;;;;;;;;5073616;28;20032;-77
2021/01/25 11:22:22;;;;;;;33.08;19.35;;;;;;;;;;5073705;28;20047;-77
2021/01/25 11:24:47;;;;;;;34.33;19.98;;;;;;;;;;5073658;28;20040;-77
2021/01/25 11:27:13;;;;;;;38.55;20.25;;;;;;;;;;5073945;28;20094;-77
2021/01/25 11:29:38;;;;;;;37.38;21.55;;;;;;;;;;5073856;28;20047;-77
2021/01/25 11:32:05;;;;;;;37.22;21.00;;;;;;;;;;5073444;28;20895;-77
2021/01/25 11:34:31;;;;;;;35.35;19.65;;;;;;;;;;5074263;28;20028;-77
2021/01/25 11:36:56;;;;;;;35.35;19.85;;;;;;;;;;5074886;28;20071;-77
2021/01/25 11:39:27;;;;;;;34.85;18.85;;;;;;;;;;5074778;28;20040;-77
2021/01/25 11:41:53;;;;;;;32.45;18.77;;;;;;;;;;5076020;28;20040;-77
2021/01/25 11:44:19;;;;;;;30.67;18.15;;;;;;;;;;5075725;28;20040;-77
2021/01/25 11:46:45;;;;;;;33.13;19.83;;;;;;;;;;5076403;28;20052;-77
2021/01/25 11:49:11;;;;;;;29.08;17.48;;;;;;;;;;5076449;28;20039;-77
2021/01/25 11:51:36;;;;;;;33.83;19.10;;;;;;;;;;5075697;28;20052;-77
2021/01/25 11:54:02;;;;;;;29.77;16.90;;;;;;;;;;5075543;28;20454;-77
2021/01/25 11:56:27;;;;;;;34.40;18.15;;;;;;;;;;5076155;28;20039;-77
2021/01/25 11:58:52;;;;;;;31.05;18.00;;;;;;;;;;5076572;28;20378;-77
2021/01/25 12:01:18;;;;;;;32.10;19.00;;;;;;;;;;5077495;28;20048;-77
2021/01/25 12:03:43;;;;;;;34.97;18.35;;;;;;;;;;5059111;28;20037;-77
2021/01/25 12:06:09;;;;;;;30.08;18.10;;;;;;;;;;5060035;28;20098;-78
2021/01/25 12:08:35;;;;;;;36.08;21.20;;;;;;;;;;5083047;28;20064;-79
2021/01/25 12:11:05;;;;;;;33.35;20.25;;;;;;;;;;5084014;28;20052;-78
2021/01/25 12:13:30;;;;;;;34.80;19.92;;;;;;;;;;5087929;28;20041;-78
2021/01/25 12:15:56;;;;;;;32.60;19.38;;;;;;;;;;5097076;28;20040;-78
2021/01/25 12:18:22;;;;;;;31.75;19.33;;;;;;;;;;5106902;28;20032;-79
2021/01/25 12:20:47;;;;;;;32.50;19.33;;;;;;;;;;5088633;28;20036;-79
2021/01/25 12:23:13;;;;;;;32.05;19.30;;;;;;;;;;5107083;28;20046;-79
2021/01/25 12:25:38;;;;;;;33.08;17.65;;;;;;;;;;5105930;28;20040;-78
2021/01/25 12:28:04;;;;;;;33.92;19.48;;;;;;;;;;5107784;28;20036;-78
2021/01/25 12:30:29;;;;;;;33.28;19.92;;;;;;;;;;5087119;28;20054;-79
2021/01/25 12:32:55;;;;;;;29.48;17.77;;;;;;;;;;5106969;28;20036;-78
2021/01/25 12:35:22;;;;;;;29.65;18.00;;;;;;;;;;5106416;28;20119;-79
2021/01/25 12:37:50;;;;;;;29.58;17.67;;;;;;;;;;5086682;28;20047;-78
2021/01/25 12:40:16;;;;;;;30.08;18.48;;;;;;;;;;5082234;28;20036;-78
2021/01/25 12:42:41;;;;;;;35.33;18.40;;;;;;;;;;5090957;28;20043;-79
2021/01/25 12:45:08;;;;;;;31.27;18.98;;;;;;;;;;5087208;28;20072;-79
2021/01/25 12:47:33;;;;;;;38.50;21.65;;;;;;;;;;5068910;28;20039;-77
2021/01/25 12:49:59;;;;;;;37.40;21.55;;;;;;;;;;5054032;28;20028;-79
2021/01/25 12:52:30;;;;;;;34.20;20.30;;;;;;;;;;5085556;28;20405;-77
2021/01/25 12:54:56;;;;;;;34.33;20.08;;;;;;;;;;5046782;28;20036;-76
2021/01/25 12:57:22;;;;;;;37.72;20.15;;;;;;;;;;5061751;28;20154;-76
2021/01/25 12:59:47;;;;;;;30.98;19.13;;;;;;;;;;5079798;28;20040;-76
2021/01/25 13:02:13;;;;;;;33.88;19.75;;;;;;;;;;5079830;28;20153;-76
2021/01/25 13:04:38;;;;;;;29.40;19.05;;;;;;;;;;5061536;28;20048;-76
2021/01/25 13:07:03;;;;;;;27.90;17.67;;;;;;;;;;5060549;28;20102;-76
2021/01/25 13:09:29;;;;;;;26.67;17.13;;;;;;;;;;5080089;28;20036;-76
2021/01/25 13:11:54;;;;;;;33.25;18.52;;;;;;;;;;5076794;28;20123;-74
2021/01/25 13:14:19;;;;;;;29.35;18.27;;;;;;;;;;5065751;28;20055;-74
2021/01/25 13:16:45;;;;;;;28.58;17.90;;;;;;;;;;5071171;28;20056;-76
2021/01/25 13:19:10;;;;;;;31.30;18.77;;;;;;;;;;5077276;28;20032;-77
2021/01/25 13:21:36;;;;;;;32.13;17.98;;;;;;;;;;5076687;28;20042;-77
2021/01/25 13:24:03;;;;;;;31.60;18.75;;;;;;;;;;5060672;28;20044;-76
2021/01/25 13:26:28;;;;;;;25.48;16.70;;;;;;;;;;5077403;28;20032;-76
2021/01/25 13:28:54;;;;;;;26.73;17.80;;;;;;;;;;5060761;28;20036;-76
2021/01/25 13:31:21;;;;;;;28.58;18.40;;;;;;;;;;5045399;28;20387;-74
2021/01/25 13:33:47;;;;;;;25.13;17.05;;;;;;;;;;5061872;28;20039;-74
2021/01/25 13:36:13;;;;;;;27.80;17.95;;;;;;;;;;5079807;28;20040;-74
2021/01/25 13:38:39;;;;;;;26.90;17.98;;;;;;;;;;5079215;28;20044;-74
2021/01/25 13:41:04;;;;;;;29.08;17.88;;;;;;;;;;5063893;28;20047;-74
2021/01/25 13:43:30;;;;;;;28.13;17.65;;;;;;;;;;5080342;28;20074;-74
2021/01/25 13:45:55;;;;;;;27.98;18.08;;;;;;;;;;5079710;28;20040;-74
2021/01/25 13:48:21;;;;;;;30.33;19.38;;;;;;;;;;5078991;28;20033;-74
2021/01/25 13:50:47;;;;;;;27.70;18.20;;;;;;;;;;5078724;28;20059;-74
2021/01/25 13:53:13;;;;;;;30.85;19.77;;;;;;;;;;5077976;28;20054;-74
2021/01/25 13:55:39;;;;;;;30.75;19.58;;;;;;;;;;5077943;28;20036;-74
2021/01/25 13:58:05;;;;;;;31.55;20.95;;;;;;;;;;5078447;28;20029;-74
2021/01/25 14:00:32;;;;;;;31.15;19.60;;;;;;;;;;5078589;28;20111;-74
2021/01/25 14:02:58;;;;;;;28.33;19.25;;;;;;;;;;5075283;28;20037;-74
2021/01/25 14:05:25;;;;;;;29.35;19.63;;;;;;;;;;5057552;28;20033;-74
2021/01/25 14:07:50;;;;;;;31.85;20.45;;;;;;;;;;5075405;28;20033;-74
2021/01/25 14:10:18;;;;;;;33.45;20.48;;;;;;;;;;5076132;28;20043;-73
2021/01/25 14:12:44;;;;;;;30.00;18.88;;;;;;;;;;5076150;28;20041;-73
2021/01/25 14:15:10;;;;;;;32.85;18.58;;;;;;;;;;5076280;28;20035;-74
2021/01/25 14:17:35;;;;;;;27.45;19.63;;;;;;;;;;5075888;28;20028;-73